Time;durP1;ratioP1;P1;durP2;ratioP2;P2;SDS_P1;SDS_P2;PMS_P1;PMS_P2;Temp;Humidity;BMP_temperature;BMP_pressure;BME280_temperature;BME280_humidity;BME280_pressure;Samples;Min_cycle;Max_cycle;Signal;HPM_P1;HPM_P2
2022/11/08 00:04:16;;;;;;;4.97;1.87;;;9.80;99.90;;;;;;5090532;28;20520;-75
2022/11/08 00:16:14;;;;;;;4.80;2.23;;;9.80;99.90;;;;;;5094449;28;20546;-75
2022/11/08 00:19:00;;;;;;;4.90;2.60;;;9.80;99.90;;;;;;5085166;28;20612;-75
2022/11/08 00:21:45;;;;;;;4.23;2.13;;;9.80;99.90;;;;;;5092200;28;20416;-75
2022/11/08 00:24:31;;;;;;;4.17;1.77;;;9.80;99.90;;;;;;5091003;28;20438;-75
2022/11/08 00:27:18;;;;;;;7.80;2.50;;;9.80;99.90;;;;;;5103738;28;20431;-74
2022/11/08 00:30:07;;;;;;;6.50;2.10;;;9.70;99.90;;;;;;5083052;28;20462;-75
2022/11/08 00:32:53;;;;;;;3.90;2.23;;;9.70;99.90;;;;;;5097525;28;20417;-75
2022/11/08 00:35:38;;;;;;;5.10;2.50;;;9.70;99.90;;;;;;5096315;28;20397;-74
2022/11/08 00:38:24;;;;;;;3.50;2.00;;;9.70;99.90;;;;;;5086558;28;20696;-74
2022/11/08 00:41:09;;;;;;;5.50;2.50;;;9.60;99.90;;;;;;5088371;28;20445;-73
2022/11/08 00:43:55;;;;;;;5.47;2.20;;;9.50;99.90;;;;;;5085483;28;20442;-74
2022/11/08 00:46:42;;;;;;;5.37;2.10;;;9.30;99.90;;;;;;5084144;28;20534;-75
2022/11/08 00:49:28;;;;;;;4.10;2.60;;;9.30;99.90;;;;;;5086866;28;21020;-75
2022/11/08 00:52:13;;;;;;;5.13;2.10;;;9.30;99.90;;;;;;5094780;28;20426;-75
2022/11/08 00:54:59;;;;;;;6.03;2.23;;;9.20;99.90;;;;;;5098072;28;20467;-76
2022/11/08 00:57:45;;;;;;;4.73;2.23;;;9.20;99.90;;;;;;5095111;28;20431;-75
2022/11/08 01:00:31;;;;;;;6.03;2.10;;;9.10;99.90;;;;;;5088791;28;20457;-74
2022/11/08 01:03:20;;;;;;;4.70;2.07;;;9.10;99.90;;;;;;5092264;28;20514;-75
2022/11/08 01:06:08;;;;;;;5.23;2.57;;;9.10;99.90;;;;;;5090577;28;20958;-75
2022/11/08 01:08:55;;;;;;;4.87;2.50;;;9.20;99.90;;;;;;5091010;28;20946;-74
2022/11/08 01:11:45;;;;;;;4.90;2.87;;;9.10;99.90;;;;;;5095078;28;20429;-75
2022/11/08 01:14:30;;;;;;;5.30;2.87;;;9.00;99.90;;;;;;5084017;28;20450;-75
2022/11/08 01:17:16;;;;;;;8.00;3.87;;;9.00;99.90;;;;;;5087409;28;20502;-75
2022/11/08 01:20:04;;;;;;;4.13;2.10;;;9.00;99.90;;;;;;5080622;28;20416;-75
2022/11/08 01:22:49;;;;;;;5.87;2.60;;;9.00;99.90;;;;;;5098026;28;20457;-75
2022/11/08 01:25:37;;;;;;;5.93;2.50;;;8.90;99.90;;;;;;5093760;28;20469;-75
2022/11/08 01:28:22;;;;;;;4.70;2.70;;;8.80;99.90;;;;;;5096271;28;20993;-75
2022/11/08 01:31:11;;;;;;;5.00;2.43;;;8.70;99.90;;;;;;5094936;28;20437;-75
2022/11/08 01:33:57;;;;;;;6.70;2.83;;;8.60;99.90;;;;;;5085017;28;20450;-74
2022/11/08 01:36:44;;;;;;;7.00;2.10;;;8.50;99.90;;;;;;5089671;28;20436;-75
2022/11/08 01:39:31;;;;;;;7.63;2.50;;;8.60;99.90;;;;;;5080446;28;20941;-75
2022/11/08 01:42:17;;;;;;;3.93;2.17;;;8.50;99.90;;;;;;5091587;28;20779;-75
2022/11/08 01:45:05;;;;;;;3.73;2.03;;;8.50;99.90;;;;;;5087925;28;20844;-75
2022/11/08 01:47:51;;;;;;;4.57;2.03;;;8.50;99.90;;;;;;5084057;28;20473;-75
2022/11/08 01:50:37;;;;;;;4.83;2.30;;;8.60;99.90;;;;;;5084097;28;20441;-75
2022/11/08 01:53:25;;;;;;;5.00;2.27;;;8.60;99.90;;;;;;5090692;28;20494;-75
2022/11/08 01:56:12;;;;;;;4.40;2.67;;;8.60;99.90;;;;;;5089364;28;20469;-74
2022/11/08 01:59:01;;;;;;;4.20;2.27;;;8.60;99.90;;;;;;5085948;28;20961;-75
2022/11/08 02:01:47;;;;;;;3.50;2.00;;;8.50;99.90;;;;;;5082581;28;20577;-75
2022/11/08 02:04:33;;;;;;;3.97;2.50;;;8.50;99.90;;;;;;5094288;28;20627;-75
2022/11/08 02:07:19;;;;;;;7.63;2.50;;;8.40;99.90;;;;;;5095694;28;20454;-75
2022/11/08 02:10:07;;;;;;;3.47;2.13;;;8.30;99.90;;;;;;5090446;28;20433;-75
2022/11/08 02:12:54;;;;;;;3.10;2.50;;;8.40;99.90;;;;;;5096253;28;20579;-75
2022/11/08 02:15:40;;;;;;;8.20;2.70;;;8.40;99.90;;;;;;5086778;28;20432;-75
2022/11/08 02:18:27;;;;;;;10.77;2.57;;;8.30;99.90;;;;;;5084452;28;20474;-75
2022/11/08 02:21:20;;;;;;;5.70;2.63;;;8.30;99.90;;;;;;5093617;28;20446;-75
2022/11/08 02:24:11;;;;;;;3.23;2.10;;;8.30;99.90;;;;;;5089656;28;20441;-75
2022/11/08 02:26:57;;;;;;;5.03;2.40;;;8.20;99.90;;;;;;5092353;28;20526;-75
2022/11/08 02:29:42;;;;;;;3.00;2.17;;;8.30;99.90;;;;;;5084571;28;20946;-75
2022/11/08 02:32:38;;;;;;;4.60;2.23;;;8.20;99.90;;;;;;5089048;28;20552;-75
2022/11/08 02:35:24;;;;;;;5.50;2.77;;;8.10;99.90;;;;;;5089080;28;20461;-75
2022/11/08 02:38:10;;;;;;;5.50;2.77;;;8.10;99.90;;;;;;5077295;28;21578;-75
2022/11/08 02:40:57;;;;;;;8.13;2.40;;;8.00;99.90;;;;;;5085721;28;20784;-73
2022/11/08 02:43:43;;;;;;;3.23;2.43;;;7.90;99.90;;;;;;5081985;28;20522;-75
2022/11/08 02:46:28;;;;;;;2.93;1.87;;;7.90;99.90;;;;;;5092885;28;20509;-75
2022/11/08 02:49:14;;;;;;;8.13;2.20;;;8.00;99.90;;;;;;5088403;28;20453;-74
2022/11/08 02:52:00;;;;;;;3.30;2.10;;;7.90;99.90;;;;;;5085869;28;20462;-75
2022/11/08 02:54:45;;;;;;;6.17;2.40;;;8.00;99.90;;;;;;5086561;28;20428;-74
2022/11/08 02:57:32;;;;;;;4.47;2.40;;;8.10;99.90;;;;;;5085491;28;20443;-74
2022/11/08 03:00:18;;;;;;;4.20;2.27;;;7.90;99.90;;;;;;5093913;28;20442;-75
2022/11/08 03:03:04;;;;;;;12.30;3.07;;;7.90;99.90;;;;;;5093362;28;20420;-74
2022/11/08 03:05:49;;;;;;;6.83;2.10;;;8.00;99.90;;;;;;5086435;28;20980;-74
2022/11/08 03:08:35;;;;;;;4.40;2.53;;;8.00;99.90;;;;;;5083245;28;20498;-75
2022/11/08 03:11:21;;;;;;;3.83;2.33;;;8.00;99.90;;;;;;5095560;28;20420;-75
2022/11/08 03:14:08;;;;;;;3.27;2.07;;;7.90;99.90;;;;;;5097382;28;20820;-75
2022/11/08 03:16:53;;;;;;;4.37;2.20;;;7.90;99.90;;;;;;5086335;28;20444;-75
2022/11/08 03:19:38;;;;;;;5.80;2.70;;;7.60;99.90;;;;;;5090847;28;20433;-75
2022/11/08 03:22:25;;;;;;;3.30;2.57;;;7.60;99.90;;;;;;5082946;28;20437;-74
2022/11/08 03:25:11;;;;;;;8.47;2.77;;;7.60;99.90;;;;;;5095958;28;20449;-75
2022/11/08 03:28:01;;;;;;;4.77;2.93;;;7.60;99.90;;;;;;5081934;28;20848;-74
2022/11/08 03:30:50;;;;;;;3.23;2.20;;;7.50;99.90;;;;;;5096025;28;20440;-74
2022/11/08 03:33:36;;;;;;;4.00;2.60;;;7.60;99.90;;;;;;5081509;28;20449;-74
2022/11/08 03:36:22;;;;;;;3.70;2.47;;;7.40;99.90;;;;;;5094768;28;20449;-76
2022/11/08 03:39:07;;;;;;;4.90;2.60;;;7.40;99.90;;;;;;5088085;28;20445;-74
2022/11/08 03:41:52;;;;;;;6.33;2.40;;;7.30;99.90;;;;;;5085553;28;20448;-74
2022/11/08 03:44:38;;;;;;;6.90;2.77;;;7.20;99.90;;;;;;5093125;28;20454;-75
2022/11/08 03:47:25;;;;;;;8.15;2.00;;;7.30;99.90;;;;;;5088473;28;20497;-75
2022/11/08 03:50:11;;;;;;;4.20;2.50;;;7.30;99.90;;;;;;5090645;28;20211;-74
2022/11/08 03:52:57;;;;;;;3.40;2.27;;;7.40;99.90;;;;;;5078499;28;20426;-74
2022/11/08 03:55:42;;;;;;;4.10;2.20;;;7.50;99.90;;;;;;5087721;28;20452;-75
2022/11/08 03:58:28;;;;;;;5.27;2.90;;;7.40;99.90;;;;;;5091246;28;20998;-74
2022/11/08 04:01:13;;;;;;;9.90;2.20;;;7.40;99.90;;;;;;5094077;28;20456;-74
2022/11/08 04:04:00;;;;;;;6.43;3.00;;;7.40;99.90;;;;;;5083835;28;20412;-74
2022/11/08 04:06:46;;;;;;;6.93;2.87;;;7.30;99.90;;;;;;5084109;28;22053;-74
2022/11/08 04:09:31;;;;;;;5.87;2.60;;;7.20;99.90;;;;;;5087731;28;20449;-75
2022/11/08 04:15:22;;;;;;;3.70;2.10;;;7.20;99.90;;;;;;5083679;28;20464;-75
2022/11/08 04:21:21;;;;;;;7.85;2.47;;;7.10;99.90;;;;;;5089271;28;20444;-75
2022/11/08 04:24:07;;;;;;;2.40;1.70;;;7.10;99.90;;;;;;5091632;28;20273;-75
2022/11/08 04:26:53;;;;;;;5.63;2.17;;;7.20;99.90;;;;;;5088954;28;20485;-74
2022/11/08 04:29:39;;;;;;;4.60;2.43;;;7.30;99.90;;;;;;5084168;28;20437;-77
2022/11/08 04:32:24;;;;;;;5.40;2.30;;;7.20;99.90;;;;;;5084084;28;20564;-77
2022/11/08 04:35:10;;;;;;;5.03;2.00;;;7.20;99.90;;;;;;5088333;28;20211;-77
2022/11/08 04:37:59;;;;;;;2.70;1.92;;;7.20;99.90;;;;;;5076636;28;20558;-75
2022/11/08 04:40:45;;;;;;;2.93;2.07;;;7.10;99.90;;;;;;5089774;28;20274;-75
2022/11/08 04:43:31;;;;;;;3.73;2.87;;;7.10;99.90;;;;;;5089529;28;20476;-77
2022/11/08 04:46:19;;;;;;;5.50;2.30;;;7.20;99.90;;;;;;5082906;28;20540;-77
2022/11/08 04:49:04;;;;;;;4.78;2.40;;;7.20;99.90;;;;;;5092781;28;20488;-76
2022/11/08 04:51:50;;;;;;;9.10;2.87;;;7.20;99.90;;;;;;5092728;28;20211;-77
2022/11/08 04:54:36;;;;;;;9.17;2.57;;;7.10;99.90;;;;;;5088670;28;21029;-78
2022/11/08 04:57:22;;;;;;;7.33;2.50;;;7.10;99.90;;;;;;5084309;28;20461;-76
2022/11/08 05:00:08;;;;;;;7.07;2.40;;;7.10;99.90;;;;;;5089684;28;21672;-77
2022/11/08 05:02:54;;;;;;;4.23;2.63;;;7.00;99.90;;;;;;5096175;28;20523;-76
2022/11/08 05:05:40;;;;;;;6.93;1.97;;;7.00;99.90;;;;;;5091253;28;20514;-74
2022/11/08 05:08:26;;;;;;;3.90;2.10;;;7.10;99.90;;;;;;5104631;28;20475;-76
2022/11/08 05:11:14;;;;;;;2.43;1.67;;;7.00;99.90;;;;;;5090049;28;20488;-77
2022/11/08 05:13:59;;;;;;;3.07;2.13;;;7.00;99.90;;;;;;5094017;28;20518;-76
2022/11/08 05:16:45;;;;;;;6.67;3.40;;;7.00;99.90;;;;;;5088923;28;20465;-75
2022/11/08 05:25:42;;;;;;;3.33;2.67;;;7.20;99.90;;;;;;5088207;28;20416;-77
2022/11/08 05:28:29;;;;;;;4.80;3.75;;;7.20;99.90;;;;;;5097294;28;20601;-77
2022/11/08 05:31:15;;;;;;;4.20;3.33;;;7.20;99.90;;;;;;5097626;28;20207;-77
2022/11/08 05:34:01;;;;;;;9.23;3.77;;;7.20;99.90;;;;;;5092118;28;20452;-77
2022/11/08 05:36:47;;;;;;;6.37;3.40;;;7.00;99.90;;;;;;5076755;28;20457;-77
2022/11/08 05:39:32;;;;;;;13.70;3.03;;;6.90;99.90;;;;;;5089203;28;20794;-75
2022/11/08 05:42:18;;;;;;;5.77;3.10;;;6.90;99.90;;;;;;5088774;28;20441;-75
2022/11/08 05:45:05;;;;;;;7.90;2.70;;;6.90;99.90;;;;;;5086047;28;20449;-77
2022/11/08 05:47:51;;;;;;;4.60;2.30;;;6.90;99.90;;;;;;5087128;28;20762;-77
2022/11/08 05:50:36;;;;;;;4.70;2.37;;;6.80;99.90;;;;;;5096879;28;20446;-77
2022/11/08 05:53:22;;;;;;;3.93;2.47;;;6.90;99.90;;;;;;5091398;28;20536;-77
2022/11/08 05:56:08;;;;;;;5.27;3.13;;;7.00;99.90;;;;;;5086697;28;20433;-76
2022/11/08 05:58:53;;;;;;;4.20;3.00;;;7.10;99.90;;;;;;5095581;28;20812;-77
2022/11/08 06:01:41;;;;;;;9.10;3.30;;;7.10;99.90;;;;;;5084937;28;20811;-77
2022/11/08 06:04:26;;;;;;;10.80;3.23;;;7.10;99.90;;;;;;5089274;28;20452;-73
2022/11/08 06:07:12;;;;;;;7.10;2.88;;;7.00;99.90;;;;;;5089107;28;21083;-76
2022/11/08 06:09:57;;;;;;;9.77;3.75;;;7.00;99.90;;;;;;5086240;28;20692;-77
2022/11/08 06:12:43;;;;;;;6.10;4.10;;;6.90;99.90;;;;;;5084179;28;20203;-76
2022/11/08 06:15:28;;;;;;;6.22;4.10;;;6.90;99.90;;;;;;5082908;28;20853;-77
2022/11/08 06:18:15;;;;;;;11.20;5.30;;;6.80;99.90;;;;;;5092392;28;20213;-77
2022/11/08 06:21:03;;;;;;;11.23;5.13;;;6.80;99.90;;;;;;5083390;28;20446;-75
2022/11/08 06:23:51;;;;;;;7.80;4.27;;;6.80;99.90;;;;;;5083819;28;20488;-76
2022/11/08 06:26:37;;;;;;;8.80;3.30;;;6.90;99.90;;;;;;5083610;28;20465;-76
2022/11/08 06:29:22;;;;;;;4.82;3.20;;;7.00;99.90;;;;;;5087801;28;20444;-75
2022/11/08 06:32:08;;;;;;;4.90;3.53;;;7.20;99.90;;;;;;5091376;28;20199;-77
2022/11/08 06:34:55;;;;;;;7.03;3.10;;;7.20;99.90;;;;;;5083009;28;20939;-76
2022/11/08 06:37:43;;;;;;;5.47;3.43;;;7.10;99.90;;;;;;5092218;28;20468;-77
2022/11/08 06:40:29;;;;;;;7.20;4.10;;;7.20;99.90;;;;;;5082852;28;20507;-75
2022/11/08 06:43:15;;;;;;;5.63;3.70;;;7.00;99.90;;;;;;5082377;28;20461;-77
2022/11/08 06:46:01;;;;;;;6.97;3.90;;;7.00;99.90;;;;;;5081120;28;20450;-76
2022/11/08 06:48:47;;;;;;;8.30;3.80;;;6.90;99.90;;;;;;5086032;28;20434;-73
2022/11/08 06:51:34;;;;;;;4.97;3.15;;;6.90;99.90;;;;;;5091391;28;20930;-77
2022/11/08 06:54:20;;;;;;;5.53;3.60;;;6.90;99.90;;;;;;5086531;28;20203;-76
2022/11/08 06:57:05;;;;;;;4.17;3.20;;;7.00;99.90;;;;;;5089932;28;20480;-77
2022/11/08 06:59:51;;;;;;;5.40;3.77;;;7.00;99.90;;;;;;5088236;28;20449;-77
2022/11/08 07:02:36;;;;;;;6.23;4.00;;;7.10;99.90;;;;;;5087689;28;20441;-75
2022/11/08 07:05:22;;;;;;;7.20;3.70;;;7.10;99.90;;;;;;5085627;28;20925;-77
2022/11/08 07:08:09;;;;;;;4.50;2.80;;;7.10;99.90;;;;;;5086694;28;20477;-77
2022/11/08 07:10:55;;;;;;;5.40;3.67;;;7.20;99.90;;;;;;5080061;28;20949;-76
2022/11/08 07:13:40;;;;;;;11.43;3.77;;;7.20;99.90;;;;;;5087906;28;20942;-72
2022/11/08 07:16:26;;;;;;;6.83;3.97;;;7.10;99.90;;;;;;5091189;28;20603;-76
2022/11/08 07:19:11;;;;;;;4.80;3.20;;;7.20;99.90;;;;;;5079997;28;20449;-76
2022/11/08 07:21:57;;;;;;;6.47;3.40;;;7.10;99.90;;;;;;5087281;28;20468;-76
2022/11/08 07:24:44;;;;;;;6.67;3.77;;;7.20;99.90;;;;;;5078643;28;20495;-76
2022/11/08 07:27:30;;;;;;;5.03;3.20;;;7.20;99.90;;;;;;5088299;28;20443;-76
2022/11/08 07:30:15;;;;;;;7.77;3.67;;;7.30;99.90;;;;;;5083330;28;20446;-76
2022/11/08 07:33:01;;;;;;;6.57;2.93;;;7.40;99.90;;;;;;5086369;28;20555;-76
2022/11/08 07:35:47;;;;;;;3.87;3.40;;;7.40;99.90;;;;;;5086667;28;20441;-76
2022/11/08 07:38:32;;;;;;;7.57;4.33;;;7.50;99.90;;;;;;5085433;28;20442;-75
2022/11/08 07:41:19;;;;;;;8.50;5.40;;;7.60;99.90;;;;;;5085607;28;20457;-76
2022/11/08 07:44:05;;;;;;;9.23;6.33;;;7.60;99.90;;;;;;5079118;28;20486;-76
2022/11/08 07:46:50;;;;;;;14.03;7.20;;;7.60;99.90;;;;;;5086760;28;20473;-76
2022/11/08 07:49:36;;;;;;;10.83;6.77;;;7.70;99.90;;;;;;5076230;28;20499;-76
2022/11/08 07:52:22;;;;;;;8.33;5.90;;;7.70;99.90;;;;;;5095398;28;20487;-75
2022/11/08 07:55:08;;;;;;;12.33;7.00;;;7.80;99.90;;;;;;5082933;28;20438;-76
2022/11/08 07:58:00;;;;;;;12.90;8.03;;;7.90;99.90;;;;;;5082410;28;21037;-75
2022/11/08 08:00:48;;;;;;;14.73;7.50;;;8.00;99.90;;;;;;5077226;28;20979;-76
2022/11/08 08:03:34;;;;;;;18.13;8.23;;;8.00;99.90;;;;;;5086416;28;20432;-74
2022/11/08 08:06:20;;;;;;;10.53;7.57;;;8.10;99.90;;;;;;5097831;28;20604;-77
2022/11/08 08:09:06;;;;;;;13.30;7.87;;;8.10;99.90;;;;;;5098224;28;20439;-77
2022/11/08 08:11:52;;;;;;;10.13;7.60;;;8.10;99.90;;;;;;5084003;28;21219;-76
2022/11/08 08:14:38;;;;;;;16.40;9.33;;;8.20;99.90;;;;;;5081288;28;20448;-76
2022/11/08 08:17:24;;;;;;;13.63;9.30;;;8.20;99.90;;;;;;5095973;28;20436;-75
2022/11/08 08:20:11;;;;;;;16.47;9.27;;;8.30;99.90;;;;;;5089855;28;20811;-76
2022/11/08 08:22:57;;;;;;;13.30;9.37;;;8.40;99.90;;;;;;5091958;28;20450;-75
2022/11/08 08:25:42;;;;;;;22.10;10.53;;;8.50;99.90;;;;;;5091761;28;20452;-74
2022/11/08 08:28:28;;;;;;;12.10;9.33;;;8.60;99.90;;;;;;5087791;28;21009;-74
2022/11/08 08:31:15;;;;;;;20.03;8.77;;;8.80;99.90;;;;;;5088603;28;20403;-76
2022/11/08 08:34:01;;;;;;;10.87;6.97;;;8.80;99.90;;;;;;5095207;28;20952;-77
2022/11/08 08:36:47;;;;;;;13.37;7.73;;;8.90;99.90;;;;;;5106630;28;20465;-76
2022/11/08 08:39:32;;;;;;;16.43;9.70;;;9.00;99.90;;;;;;5083730;28;20424;-75
2022/11/08 08:42:17;;;;;;;16.57;11.37;;;9.00;99.90;;;;;;5097611;28;20445;-75
2022/11/08 08:45:04;;;;;;;15.13;10.77;;;9.10;99.90;;;;;;5092302;28;20426;-76
2022/11/08 08:47:55;;;;;;;27.83;11.23;;;9.00;99.90;;;;;;5088679;28;21018;-76
2022/11/08 08:50:42;;;;;;;16.20;10.17;;;9.10;99.90;;;;;;5093487;28;20521;-76
2022/11/08 08:53:27;;;;;;;12.50;7.53;;;9.10;99.90;;;;;;5091087;28;21003;-73
2022/11/08 08:56:13;;;;;;;12.57;8.70;;;9.20;99.90;;;;;;5088672;28;20456;-76
2022/11/08 08:58:58;;;;;;;12.10;7.13;;;9.30;99.90;;;;;;5090036;28;20479;-73
2022/11/08 09:01:44;;;;;;;12.47;8.17;;;9.40;99.90;;;;;;5090487;28;20922;-77
2022/11/08 09:04:31;;;;;;;15.43;8.40;;;9.40;99.90;;;;;;5093181;28;20441;-75
2022/11/08 09:07:16;;;;;;;15.60;7.87;;;9.60;99.90;;;;;;5088881;28;20795;-75
2022/11/08 09:10:02;;;;;;;10.97;7.13;;;9.70;99.90;;;;;;5091730;28;20563;-76
2022/11/08 09:12:48;;;;;;;11.23;7.00;;;9.90;99.90;;;;;;5099893;28;20437;-76
2022/11/08 09:15:34;;;;;;;10.27;7.23;;;10.10;99.90;;;;;;5111766;28;20424;-76
2022/11/08 09:18:20;;;;;;;12.90;7.20;;;10.30;99.90;;;;;;5086232;28;20543;-76
2022/11/08 09:21:07;;;;;;;10.20;7.03;;;10.40;99.90;;;;;;5097096;28;20483;-76
2022/11/08 09:23:53;;;;;;;9.23;7.27;;;10.50;99.90;;;;;;5088043;28;20441;-76
2022/11/08 09:26:38;;;;;;;20.27;7.13;;;10.60;99.90;;;;;;5094873;28;20485;-75
2022/11/08 09:29:24;;;;;;;17.37;8.73;;;10.70;99.90;;;;;;5085770;28;20795;-74
2022/11/08 09:32:10;;;;;;;18.10;7.47;;;10.70;99.90;;;;;;5094245;28;20460;-74
2022/11/08 09:34:56;;;;;;;12.57;7.67;;;10.90;99.90;;;;;;5093866;28;20572;-74
2022/11/08 09:37:43;;;;;;;13.40;7.30;;;11.10;99.90;;;;;;5100560;28;20420;-76
2022/11/08 09:40:37;;;;;;;16.27;6.10;;;11.30;99.90;;;;;;5094142;28;20425;-74
2022/11/08 09:43:40;;;;;;;12.00;6.60;;;11.60;99.90;;;;;;5101863;28;20900;-76
2022/11/08 09:46:32;;;;;;;11.50;6.53;;;11.90;99.90;;;;;;5102480;28;20412;-76
2022/11/08 09:49:22;;;;;;;12.67;7.17;;;12.10;99.90;;;;;;5093478;28;20486;-75
2022/11/08 09:52:13;;;;;;;9.37;7.00;;;12.30;99.90;;;;;;5109809;28;21164;-76
2022/11/08 09:55:14;;;;;;;10.67;6.33;;;12.60;99.90;;;;;;5105757;28;20980;-76
2022/11/08 09:58:19;;;;;;;5.70;3.27;;;12.80;99.90;;;;;;5099716;28;20477;-74
2022/11/08 10:01:05;;;;;;;6.93;3.70;;;13.00;99.90;;;;;;5104799;28;20430;-76
2022/11/08 10:03:55;;;;;;;4.57;3.17;;;13.20;99.90;;;;;;5101856;28;20425;-76
2022/11/08 10:06:55;;;;;;;6.17;2.30;;;13.50;99.90;;;;;;5106607;28;20441;-76
2022/11/08 10:10:00;;;;;;;2.73;2.07;;;13.70;99.90;;;;;;5099733;28;20407;-75
2022/11/08 10:12:57;;;;;;;3.90;2.30;;;13.90;99.90;;;;;;5102008;28;20395;-76
2022/11/08 10:15:49;;;;;;;5.23;1.97;;;14.10;99.90;;;;;;5103302;28;20478;-74
2022/11/08 10:18:58;;;;;;;7.10;3.10;;;14.30;99.90;;;;;;5091145;28;20426;-75
2022/11/08 10:21:54;;;;;;;2.70;1.70;;;14.40;99.90;;;;;;5090140;28;20821;-75
2022/11/08 10:24:46;;;;;;;4.73;1.80;;;14.60;99.90;;;;;;5084277;28;20432;-73
2022/11/08 10:27:35;;;;;;;3.40;2.23;;;14.70;99.90;;;;;;5081221;28;20476;-73
2022/11/08 10:30:26;;;;;;;2.90;1.73;;;14.80;99.90;;;;;;5092326;28;20420;-73
2022/11/08 10:33:19;;;;;;;3.40;1.60;;;15.00;99.90;;;;;;5086322;28;20416;-71
2022/11/08 10:36:10;;;;;;;5.33;2.13;;;15.10;99.90;;;;;;5106420;28;20436;-72
2022/11/08 10:39:03;;;;;;;5.83;1.83;;;15.30;99.90;;;;;;5088451;28;20441;-72
2022/11/08 10:41:57;;;;;;;3.50;2.43;;;15.30;99.90;;;;;;5096385;28;20800;-71
2022/11/08 10:44:43;;;;;;;3.53;1.90;;;15.40;99.90;;;;;;5092983;28;20421;-72
2022/11/08 10:47:32;;;;;;;5.17;2.40;;;15.40;99.90;;;;;;5079736;28;20465;-75
2022/11/08 10:50:20;;;;;;;2.93;1.60;;;15.30;99.90;;;;;;5095925;28;20519;-74
2022/11/08 10:53:11;;;;;;;4.90;1.93;;;15.20;99.90;;;;;;5103208;28;20923;-75
2022/11/08 10:56:00;;;;;;;3.40;1.60;;;15.20;99.90;;;;;;5104508;28;20425;-75
2022/11/08 10:58:46;;;;;;;3.30;1.40;;;15.10;99.90;;;;;;5086281;28;21107;-75
2022/11/08 11:01:31;;;;;;;5.77;1.63;;;15.10;99.90;;;;;;5103106;28;20940;-75
2022/11/08 11:04:27;;;;;;;3.90;1.40;;;15.10;99.90;;;;;;5103969;28;20518;-75
2022/11/08 11:07:30;;;;;;;6.60;2.80;;;15.20;99.90;;;;;;5102800;28;21009;-75
2022/11/08 11:10:23;;;;;;;2.50;1.30;;;15.10;99.90;;;;;;5109543;28;20440;-74
2022/11/08 11:13:12;;;;;;;5.53;1.37;;;15.20;98.60;;;;;;5109900;28;20811;-75
2022/11/08 11:16:01;;;;;;;2.77;1.37;;;15.20;93.60;;;;;;5103661;28;20445;-75
2022/11/08 11:18:50;;;;;;;2.73;1.60;;;15.20;94.10;;;;;;5096613;28;21080;-75
2022/11/08 11:21:39;;;;;;;5.07;1.93;;;15.30;88.30;;;;;;5107977;28;20413;-75
2022/11/08 11:24:25;;;;;;;6.23;1.70;;;15.30;85.90;;;;;;5104856;28;20429;-74
2022/11/08 11:27:20;;;;;;;4.23;1.50;;;15.40;90.20;;;;;;5090313;28;20841;-75
2022/11/08 11:30:23;;;;;;;4.20;1.47;;;15.40;85.80;;;;;;5105531;28;20432;-75
2022/11/08 11:33:23;;;;;;;7.50;2.07;;;15.50;85.30;;;;;;5099922;28;20422;-75
2022/11/08 11:36:14;;;;;;;2.63;1.30;;;15.50;82.10;;;;;;5110270;28;20791;-74
2022/11/08 11:39:04;;;;;;;2.43;1.43;;;15.60;80.30;;;;;;5103609;28;20415;-74
2022/11/08 11:41:57;;;;;;;2.73;1.50;;;15.60;80.90;;;;;;5101666;28;20403;-75
2022/11/08 11:44:56;;;;;;;13.67;3.10;;;15.70;78.80;;;;;;5105064;28;20420;-75
2022/11/08 11:47:46;;;;;;;2.53;1.37;;;15.80;76.50;;;;;;5086987;28;20525;-75
2022/11/08 11:50:34;;;;;;;2.97;1.70;;;15.80;77.10;;;;;;5106152;28;20413;-75
2022/11/08 11:53:22;;;;;;;4.30;1.70;;;15.70;76.90;;;;;;5106607;28;20432;-76
2022/11/08 11:56:29;;;;;;;2.97;1.50;;;15.70;76.70;;;;;;5102280;28;20570;-74
2022/11/08 11:59:43;;;;;;;4.77;1.60;;;15.70;72.40;;;;;;5107988;28;20432;-75
2022/11/08 12:02:55;;;;;;;3.97;1.70;;;15.70;75.10;;;;;;5092360;28;20465;-74
2022/11/08 12:06:06;;;;;;;4.20;1.73;;;15.60;74.90;;;;;;5095732;28;20924;-75
2022/11/08 12:09:12;;;;;;;5.80;1.77;;;15.50;71.50;;;;;;5098319;28;20436;-75
2022/11/08 12:12:14;;;;;;;3.20;1.43;;;15.40;72.10;;;;;;5103434;28;20785;-75
2022/11/08 12:15:10;;;;;;;2.33;1.47;;;15.40;74.30;;;;;;5102851;28;20773;-75
2022/11/08 12:18:18;;;;;;;2.93;1.60;;;15.40;72.00;;;;;;5088729;28;20434;-75
2022/11/08 12:21:10;;;;;;;3.40;1.87;;;15.40;74.70;;;;;;5099490;28;20433;-73
2022/11/08 12:24:17;;;;;;;3.80;1.60;;;15.30;75.50;;;;;;5109165;28;20437;-75
2022/11/08 12:27:12;;;;;;;3.00;1.53;;;15.40;72.50;;;;;;5080100;28;20510;-75
2022/11/08 12:30:03;;;;;;;2.30;1.40;;;15.50;72.30;;;;;;5099352;28;20421;-75
2022/11/08 12:33:15;;;;;;;5.47;1.70;;;15.60;72.30;;;;;;5097288;28;20833;-75
2022/11/08 12:36:12;;;;;;;3.10;1.57;;;15.70;72.10;;;;;;5091470;28;20542;-74
2022/11/08 12:39:09;;;;;;;3.37;1.50;;;15.80;74.00;;;;;;5102374;28;20396;-75
2022/11/08 12:42:07;;;;;;;2.43;1.10;;;15.80;72.10;;;;;;5100176;28;20425;-75
2022/11/08 12:45:22;;;;;;;4.73;1.40;;;15.80;70.20;;;;;;5100883;28;20546;-75
2022/11/08 12:48:19;;;;;;;3.80;1.80;;;15.80;79.00;;;;;;5106265;28;20460;-75
2022/11/08 12:51:11;;;;;;;4.83;1.47;;;15.90;77.00;;;;;;5104167;28;20432;-75
2022/11/08 12:54:21;;;;;;;4.80;2.37;;;15.90;73.50;;;;;;5109775;28;20893;-75
2022/11/08 12:57:15;;;;;;;5.50;1.70;;;16.00;77.30;;;;;;5085538;28;20457;-75
2022/11/08 13:00:05;;;;;;;3.40;1.50;;;16.10;77.50;;;;;;5098981;28;20807;-75
2022/11/08 13:03:00;;;;;;;2.60;1.33;;;16.20;81.00;;;;;;5100793;28;20442;-75
2022/11/08 13:05:52;;;;;;;4.13;1.40;;;16.50;75.40;;;;;;5089699;28;20499;-75
2022/11/08 13:08:44;;;;;;;3.03;1.77;;;16.70;65.80;;;;;;5097939;28;20971;-75
2022/11/08 13:11:36;;;;;;;3.13;1.63;;;16.70;62.20;;;;;;5097154;28;20474;-75
2022/11/08 13:14:23;;;;;;;4.23;1.67;;;16.70;66.40;;;;;;5110859;28;20450;-75
2022/11/08 13:17:27;;;;;;;3.20;1.40;;;16.60;67.10;;;;;;5092872;28;20525;-75
2022/11/08 13:20:39;;;;;;;4.40;2.23;;;16.40;64.50;;;;;;5107882;28;20816;-74
2022/11/08 13:23:28;;;;;;;4.33;1.50;;;16.20;67.30;;;;;;5113730;28;20832;-75
2022/11/08 13:26:21;;;;;;;2.57;1.33;;;16.10;67.30;;;;;;5096356;28;20454;-75
2022/11/08 13:29:14;;;;;;;2.70;1.40;;;16.10;71.80;;;;;;5103967;28;20537;-75
2022/11/08 13:32:06;;;;;;;2.30;1.30;;;16.00;67.70;;;;;;5085573;28;20519;-75
2022/11/08 13:35:03;;;;;;;2.30;1.10;;;16.00;63.50;;;;;;5083482;28;20502;-74
2022/11/08 13:38:01;;;;;;;2.70;1.10;;;16.10;60.30;;;;;;5088469;28;20462;-76
2022/11/08 13:41:13;;;;;;;2.23;1.20;;;16.10;61.00;;;;;;5088494;28;20499;-75
2022/11/08 13:43:59;;;;;;;1.80;1.10;;;16.10;65.20;;;;;;5085422;28;20782;-75
2022/11/08 13:46:48;;;;;;;2.60;1.40;;;16.20;61.20;;;;;;5077725;28;20440;-72
2022/11/08 13:49:34;;;;;;;2.97;1.47;;;16.20;68.60;;;;;;5098132;28;20508;-72
2022/11/08 13:52:45;;;;;;;4.33;1.40;;;16.10;64.90;;;;;;5095152;28;20548;-72
2022/11/08 13:55:49;;;;;;;4.53;2.37;;;16.10;66.30;;;;;;5095341;28;20419;-72
2022/11/08 13:58:37;;;;;;;2.63;1.73;;;16.10;68.40;;;;;;5087350;28;20447;-72
2022/11/08 14:01:58;;;;;;;5.80;1.90;;;16.00;68.50;;;;;;5099724;28;20430;-72
2022/11/08 14:04:44;;;;;;;4.33;1.13;;;15.90;70.40;;;;;;5089221;28;20429;-72
2022/11/08 14:07:38;;;;;;;2.20;1.40;;;15.90;66.40;;;;;;5091376;28;21247;-72
2022/11/08 14:10:32;;;;;;;3.57;1.23;;;15.90;68.10;;;;;;5103461;28;20425;-72
2022/11/08 14:13:27;;;;;;;2.43;1.27;;;15.90;69.70;;;;;;5105485;28;20769;-72
2022/11/08 14:16:18;;;;;;;1.87;1.17;;;15.90;63.30;;;;;;5099423;28;20428;-72
2022/11/08 14:19:17;;;;;;;5.23;2.23;;;15.80;65.10;;;;;;5089549;28;21014;-72
2022/11/08 14:22:03;;;;;;;2.57;1.60;;;15.80;62.70;;;;;;5105712;28;20976;-72
2022/11/08 14:24:52;;;;;;;3.87;1.37;;;15.70;66.10;;;;;;5105697;28;20813;-72
2022/11/08 14:27:40;;;;;;;2.60;1.53;;;15.60;72.80;;;;;;5083401;28;20457;-73
2022/11/08 14:30:27;;;;;;;2.93;1.90;;;15.60;80.30;;;;;;5095461;28;20459;-72
2022/11/08 14:33:18;;;;;;;5.93;2.80;;;15.50;83.70;;;;;;5096465;28;20443;-72
2022/11/08 14:36:06;;;;;;;3.83;2.20;;;15.40;86.60;;;;;;5097069;28;20432;-72
2022/11/08 14:39:03;;;;;;;2.60;1.63;;;15.30;89.10;;;;;;5089657;28;20464;-72
2022/11/08 14:41:53;;;;;;;5.77;1.83;;;15.30;93.40;;;;;;5091353;28;20441;-73
2022/11/08 14:44:43;;;;;;;5.63;2.10;;;15.20;98.70;;;;;;5090659;28;20446;-72
2022/11/08 14:47:32;;;;;;;7.90;2.10;;;15.10;99.20;;;;;;5090800;28;20476;-72
2022/11/08 14:50:20;;;;;;;4.53;2.10;;;15.00;99.90;;;;;;5097233;28;20599;-72
2022/11/08 14:53:25;;;;;;;3.07;1.80;;;15.00;99.90;;;;;;5089219;28;20449;-72
2022/11/08 14:56:18;;;;;;;6.33;1.63;;;15.00;99.90;;;;;;5086771;28;20860;-72
2022/11/08 14:59:06;;;;;;;2.83;1.90;;;14.90;99.90;;;;;;5094159;28;20478;-72
2022/11/08 15:01:52;;;;;;;14.50;2.20;;;14.80;99.90;;;;;;5093997;28;20452;-72
2022/11/08 15:04:40;;;;;;;3.30;1.80;;;14.70;99.90;;;;;;5095170;28;20417;-72
2022/11/08 15:07:26;;;;;;;2.53;1.53;;;14.70;99.90;;;;;;5083669;28;20827;-72
2022/11/08 15:10:12;;;;;;;3.07;2.00;;;14.70;99.90;;;;;;5088489;28;20656;-72